Time;durP1;ratioP1;P1;durP2;ratioP2;P2;SDS_P1;SDS_P2;PMS_P1;PMS_P2;Temp;Humidity;BMP_temperature;BMP_pressure;BME280_temperature;BME280_humidity;BME280_pressure;Samples;Min_cycle;Max_cycle;Signal;HPM_P1;HPM_P2
2022/02/13 00:00:15;;;;;;;11.30;2.72;;;2.10;99.90;;;;;;5032696;28;20041;-69
2022/02/13 00:02:42;;;;;;;7.38;2.60;;;2.10;99.90;;;;;;5032722;28;20516;-66
2022/02/13 00:05:08;;;;;;;9.68;2.67;;;2.10;99.90;;;;;;5014546;28;20456;-66
2022/02/13 00:07:35;;;;;;;7.30;3.00;;;2.00;99.90;;;;;;5032304;28;20087;-66
2022/02/13 00:10:03;;;;;;;15.30;3.35;;;2.00;99.90;;;;;;5032599;28;20038;-66
2022/02/13 00:12:29;;;;;;;8.20;2.42;;;2.00;99.90;;;;;;5032802;28;20033;-66
2022/02/13 00:14:54;;;;;;;8.27;3.00;;;2.00;99.90;;;;;;5032509;28;20034;-65
2022/02/13 00:17:20;;;;;;;8.85;2.70;;;2.00;99.90;;;;;;5032384;28;20040;-66
2022/02/13 00:19:46;;;;;;;5.72;2.72;;;2.00;99.90;;;;;;5032490;28;20041;-66
2022/02/13 00:22:12;;;;;;;6.68;2.72;;;1.90;99.90;;;;;;5032989;28;20036;-67
2022/02/13 00:24:38;;;;;;;4.70;2.42;;;1.90;99.90;;;;;;5032580;28;20501;-66
2022/02/13 00:27:04;;;;;;;8.15;2.92;;;1.90;99.90;;;;;;5015496;28;20509;-66
2022/02/13 00:29:29;;;;;;;8.27;2.47;;;1.90;99.90;;;;;;5032168;28;20033;-66
2022/02/13 00:31:55;;;;;;;10.13;2.85;;;1.90;99.90;;;;;;5031914;28;20431;-66
2022/02/13 00:34:20;;;;;;;8.98;2.90;;;1.90;99.90;;;;;;5031428;28;20079;-66
2022/02/13 00:36:46;;;;;;;11.05;2.58;;;1.80;99.90;;;;;;5014453;28;20389;-66
2022/02/13 00:39:12;;;;;;;6.85;2.85;;;1.90;99.90;;;;;;5032231;28;20053;-66
2022/02/13 00:41:37;;;;;;;8.13;2.75;;;1.80;99.90;;;;;;5033578;28;20091;-66
2022/02/13 00:44:03;;;;;;;7.97;2.60;;;1.80;99.90;;;;;;5032994;28;20567;-66
2022/02/13 00:46:29;;;;;;;5.65;2.58;;;1.80;99.90;;;;;;5031262;28;20038;-66
2022/02/13 00:48:55;;;;;;;7.85;2.58;;;1.80;99.90;;;;;;5031778;28;20033;-66
2022/02/13 00:51:21;;;;;;;9.10;2.55;;;1.80;99.90;;;;;;5031168;28;20105;-66
2022/02/13 00:53:47;;;;;;;8.18;2.65;;;1.80;99.90;;;;;;5031821;28;20029;-66
2022/02/13 00:56:13;;;;;;;12.40;3.97;;;1.90;99.90;;;;;;5031836;28;20029;-70
2022/02/13 00:58:40;;;;;;;13.25;2.65;;;1.90;99.90;;;;;;5013847;28;20116;-66
2022/02/13 01:01:07;;;;;;;12.30;3.83;;;1.90;99.90;;;;;;5030836;28;20398;-66
2022/02/13 01:03:33;;;;;;;7.35;2.95;;;2.00;99.90;;;;;;5031268;28;20037;-66
2022/02/13 01:06:00;;;;;;;8.82;2.53;;;2.00;99.90;;;;;;5031949;28;20044;-65
2022/02/13 01:08:26;;;;;;;7.40;2.88;;;2.00;99.90;;;;;;5031069;28;20540;-66
2022/02/13 01:10:52;;;;;;;7.90;3.10;;;2.00;99.90;;;;;;5031585;28;20120;-67
2022/02/13 01:13:18;;;;;;;10.48;2.30;;;2.00;99.90;;;;;;5030845;28;20121;-65
2022/02/13 01:15:44;;;;;;;7.50;2.38;;;2.10;99.90;;;;;;5031488;28;20120;-65
2022/02/13 01:18:10;;;;;;;11.52;3.25;;;2.10;99.90;;;;;;5031498;28;20033;-65
2022/02/13 01:20:36;;;;;;;5.90;2.55;;;2.10;99.90;;;;;;5030721;28;20033;-65
2022/02/13 01:23:02;;;;;;;12.80;3.25;;;2.20;99.90;;;;;;5031581;28;20037;-67
2022/02/13 01:25:27;;;;;;;9.65;3.45;;;2.20;99.90;;;;;;5030982;28;20111;-65
2022/02/13 01:27:53;;;;;;;16.00;4.07;;;2.20;99.90;;;;;;5031187;28;20033;-66
2022/02/13 01:30:18;;;;;;;10.77;2.75;;;2.20;99.90;;;;;;5030388;28;20029;-65
2022/02/13 01:32:44;;;;;;;10.75;3.33;;;2.20;99.90;;;;;;5030591;28;20033;-65
2022/02/13 01:35:10;;;;;;;6.53;2.95;;;2.20;99.90;;;;;;5031498;28;20067;-68
2022/02/13 01:37:36;;;;;;;10.88;3.35;;;2.20;99.90;;;;;;5031102;28;20396;-69
2022/02/13 01:40:03;;;;;;;7.57;2.80;;;2.30;99.90;;;;;;5030798;28;20315;-65
2022/02/13 01:42:28;;;;;;;9.90;3.05;;;2.30;99.90;;;;;;5032765;28;20572;-66
2022/02/13 01:44:55;;;;;;;6.70;2.25;;;2.30;99.90;;;;;;5031183;28;20120;-68
2022/02/13 01:47:22;;;;;;;10.55;2.40;;;2.30;99.90;;;;;;5031068;28;20033;-66
2022/02/13 01:49:48;;;;;;;8.88;2.38;;;2.30;99.90;;;;;;5030877;28;20516;-67
2022/02/13 01:52:14;;;;;;;10.70;2.70;;;2.30;99.90;;;;;;5030129;28;20033;-65
2022/02/13 01:54:40;;;;;;;8.10;2.90;;;2.30;99.90;;;;;;5012986;28;20484;-66
2022/02/13 01:57:10;;;;;;;9.88;3.08;;;2.30;99.90;;;;;;5030444;28;20168;-66
2022/02/13 01:59:36;;;;;;;7.80;2.07;;;2.30;99.90;;;;;;5029925;28;20033;-65
2022/02/13 02:02:02;;;;;;;6.97;2.85;;;2.30;99.90;;;;;;5030346;28;20033;-66
2022/02/13 02:04:28;;;;;;;10.90;3.58;;;2.30;99.90;;;;;;5030303;28;20087;-68
2022/02/13 02:06:54;;;;;;;5.95;2.33;;;2.20;99.90;;;;;;5013385;28;20401;-65
2022/02/13 02:09:24;;;;;;;10.05;3.50;;;2.20;99.90;;;;;;5011657;28;20103;-67
2022/02/13 02:11:49;;;;;;;10.23;3.17;;;2.20;99.90;;;;;;5012814;28;20396;-65
2022/02/13 02:14:15;;;;;;;6.40;2.78;;;2.20;99.90;;;;;;5030058;28;20124;-65
2022/02/13 02:16:42;;;;;;;10.93;3.00;;;2.10;99.90;;;;;;5012656;28;20033;-66
2022/02/13 02:19:09;;;;;;;9.20;2.60;;;2.10;99.90;;;;;;5030639;28;20037;-65
2022/02/13 02:21:34;;;;;;;8.63;3.47;;;2.20;99.90;;;;;;5029755;28;20037;-67
2022/02/13 02:24:00;;;;;;;8.68;2.92;;;2.10;99.90;;;;;;5012423;28;20032;-65
2022/02/13 02:26:25;;;;;;;7.00;2.70;;;2.10;99.90;;;;;;5029680;28;20030;-65
2022/02/13 02:28:51;;;;;;;18.42;5.00;;;2.00;99.90;;;;;;5030338;28;20037;-66
2022/02/13 02:31:17;;;;;;;6.95;2.30;;;2.00;99.90;;;;;;5029652;28;20029;-65
2022/02/13 02:33:42;;;;;;;9.82;2.70;;;1.90;99.90;;;;;;5030198;28;20369;-65
2022/02/13 02:36:18;;;;;;;8.20;2.63;;;1.90;99.90;;;;;;5029982;28;20536;-65
2022/02/13 02:38:45;;;;;;;9.18;3.28;;;1.90;99.90;;;;;;5027124;28;20048;-68
2022/02/13 02:41:11;;;;;;;6.70;3.13;;;1.80;99.90;;;;;;5012362;28;20096;-67
2022/02/13 02:43:37;;;;;;;6.43;2.60;;;1.80;99.90;;;;;;5014047;28;20025;-66
2022/02/13 02:46:03;;;;;;;8.25;2.45;;;1.80;99.90;;;;;;5012198;28;20033;-65
2022/02/13 02:48:28;;;;;;;6.80;3.13;;;1.80;99.90;;;;;;5029726;28;20053;-67
2022/02/13 02:50:54;;;;;;;7.47;2.67;;;1.70;99.90;;;;;;5029442;28;20544;-65
2022/02/13 02:53:19;;;;;;;9.25;2.97;;;1.70;99.90;;;;;;5029373;28;20393;-65
2022/02/13 02:55:45;;;;;;;7.65;2.75;;;1.70;99.90;;;;;;5030071;28;20116;-66
2022/02/13 02:58:11;;;;;;;8.18;2.83;;;1.70;99.90;;;;;;5012181;28;20042;-65
2022/02/13 03:00:36;;;;;;;6.68;2.92;;;1.70;99.90;;;;;;5028898;28;20429;-65
2022/02/13 03:03:02;;;;;;;6.13;2.05;;;1.70;99.90;;;;;;5028981;28;20048;-66
2022/02/13 03:05:28;;;;;;;7.13;2.70;;;1.60;99.90;;;;;;5029214;28;20033;-65
2022/02/13 03:07:53;;;;;;;9.48;2.92;;;1.60;99.90;;;;;;5011810;28;20581;-66
2022/02/13 03:10:19;;;;;;;9.20;2.40;;;1.60;99.90;;;;;;5029065;28;20554;-65
2022/02/13 03:12:44;;;;;;;7.68;2.58;;;1.60;99.90;;;;;;5029727;28;20495;-65
2022/02/13 03:15:10;;;;;;;8.23;2.58;;;1.60;99.90;;;;;;5029951;28;20458;-68
2022/02/13 03:17:36;;;;;;;8.50;2.60;;;1.50;99.90;;;;;;5011251;28;20113;-65
2022/02/13 03:20:03;;;;;;;10.57;3.28;;;1.60;99.90;;;;;;5011927;28;20396;-65
2022/02/13 03:22:29;;;;;;;6.88;2.50;;;1.60;99.90;;;;;;5029492;28;20056;-66
2022/02/13 03:24:58;;;;;;;7.78;2.40;;;1.60;99.90;;;;;;5029697;28;20065;-68
2022/02/13 03:27:25;;;;;;;7.65;2.90;;;1.60;99.90;;;;;;5029191;28;20033;-65
2022/02/13 03:29:50;;;;;;;9.63;2.88;;;1.60;99.90;;;;;;5029463;28;20038;-71
2022/02/13 03:32:16;;;;;;;7.90;2.85;;;1.60;99.90;;;;;;5028489;28;20409;-65
2022/02/13 03:34:41;;;;;;;7.63;2.58;;;1.60;99.90;;;;;;5029972;28;20041;-67
2022/02/13 03:37:07;;;;;;;10.35;4.18;;;1.60;99.90;;;;;;5012314;28;20036;-65
2022/02/13 03:39:32;;;;;;;7.80;2.50;;;1.60;99.90;;;;;;5032836;28;20049;-65
2022/02/13 03:41:58;;;;;;;9.90;2.88;;;1.60;99.90;;;;;;5037553;28;20036;-66
2022/02/13 03:44:23;;;;;;;7.32;3.22;;;1.70;99.90;;;;;;5030811;28;20030;-65
2022/02/13 03:46:50;;;;;;;7.97;3.75;;;1.70;99.90;;;;;;5029204;28;20029;-64
2022/02/13 03:49:16;;;;;;;12.52;3.13;;;1.70;99.90;;;;;;5029112;28;20037;-65
2022/02/13 03:51:42;;;;;;;9.35;2.25;;;1.70;99.90;;;;;;5029439;28;20040;-65
2022/02/13 03:54:08;;;;;;;9.80;3.05;;;1.70;99.90;;;;;;5011212;28;20038;-66
2022/02/13 03:56:33;;;;;;;6.40;2.85;;;1.70;99.90;;;;;;5029453;28;20111;-65
2022/02/13 03:58:59;;;;;;;7.05;2.28;;;1.70;99.90;;;;;;5009318;28;20043;-67
2022/02/13 04:01:24;;;;;;;6.95;2.88;;;1.70;99.90;;;;;;5028263;28;20029;-65
2022/02/13 04:03:50;;;;;;;5.53;2.28;;;1.70;99.90;;;;;;5011361;28;20050;-64
2022/02/13 04:06:16;;;;;;;6.75;2.28;;;1.70;99.90;;;;;;5028899;28;20449;-65
2022/02/13 04:08:41;;;;;;;6.13;2.50;;;1.70;99.90;;;;;;5029160;28;20033;-67
2022/02/13 04:11:08;;;;;;;6.97;2.83;;;1.70;99.90;;;;;;5028860;28;20045;-64
2022/02/13 04:13:33;;;;;;;7.40;2.53;;;1.70;99.90;;;;;;5010708;28;20046;-65
2022/02/13 04:15:59;;;;;;;10.40;2.78;;;1.70;99.90;;;;;;5011578;28;20037;-65
2022/02/13 04:18:25;;;;;;;6.68;2.33;;;1.60;99.90;;;;;;5011369;28;20038;-65
2022/02/13 04:20:50;;;;;;;9.77;3.67;;;1.60;99.90;;;;;;5011522;28;20389;-68
2022/02/13 04:23:16;;;;;;;7.28;2.55;;;1.60;99.90;;;;;;5032196;28;20104;-65
2022/02/13 04:25:42;;;;;;;6.20;2.10;;;1.50;99.90;;;;;;5032475;28;20026;-65
2022/02/13 04:28:07;;;;;;;9.88;2.70;;;1.50;99.90;;;;;;5014842;28;20026;-65
2022/02/13 04:30:33;;;;;;;4.45;2.10;;;1.50;99.90;;;;;;5031809;28;20060;-65
2022/02/13 04:32:59;;;;;;;6.47;2.38;;;1.50;99.90;;;;;;5014329;28;20048;-65
2022/02/13 04:35:27;;;;;;;7.72;2.08;;;1.50;99.90;;;;;;5031821;28;20082;-65
2022/02/13 04:37:55;;;;;;;9.20;2.88;;;1.50;99.90;;;;;;5014601;28;20090;-65
2022/02/13 04:40:21;;;;;;;7.47;2.63;;;1.50;99.90;;;;;;5031724;28;20136;-65
2022/02/13 04:42:47;;;;;;;4.60;2.30;;;1.40;99.90;;;;;;5033309;28;20120;-65
2022/02/13 04:45:12;;;;;;;5.75;2.47;;;1.50;99.90;;;;;;5032157;28;20045;-67
2022/02/13 04:47:38;;;;;;;6.32;2.40;;;1.40;99.90;;;;;;5031739;28;20030;-68
2022/02/13 04:50:04;;;;;;;7.32;2.38;;;1.40;99.90;;;;;;5032393;28;20061;-68
2022/02/13 04:52:30;;;;;;;7.20;2.50;;;1.40;99.90;;;;;;5013775;28;20064;-65
2022/02/13 04:54:55;;;;;;;11.07;3.05;;;1.40;99.90;;;;;;5031820;28;20378;-67
2022/02/13 04:57:21;;;;;;;9.10;2.80;;;1.40;99.90;;;;;;5031675;28;20041;-65
2022/02/13 04:59:46;;;;;;;5.63;2.33;;;1.30;99.90;;;;;;5031795;28;20047;-65
2022/02/13 05:02:13;;;;;;;6.75;2.53;;;1.30;99.90;;;;;;5031605;28;20087;-67
2022/02/13 05:04:38;;;;;;;6.82;2.17;;;1.20;99.90;;;;;;5013827;28;20042;-65
2022/02/13 05:07:05;;;;;;;6.18;2.75;;;1.20;99.90;;;;;;5031806;28;20095;-64
2022/02/13 05:09:31;;;;;;;7.22;2.20;;;1.20;99.90;;;;;;5013391;28;20496;-65
2022/02/13 05:11:58;;;;;;;10.30;2.97;;;1.20;99.90;;;;;;5014347;28;20574;-66
2022/02/13 05:14:24;;;;;;;11.07;3.22;;;1.30;99.90;;;;;;5031000;28;20117;-66
2022/02/13 05:16:50;;;;;;;7.13;2.25;;;1.20;99.90;;;;;;5031717;28;20053;-67
2022/02/13 05:19:16;;;;;;;8.65;2.50;;;1.30;99.90;;;;;;5031360;28;20091;-68
2022/02/13 05:21:43;;;;;;;8.02;2.42;;;1.30;99.90;;;;;;5031802;28;20037;-66
2022/02/13 05:24:09;;;;;;;6.03;2.33;;;1.20;99.90;;;;;;5031068;28;20040;-68
2022/02/13 05:26:35;;;;;;;5.18;2.17;;;1.20;99.90;;;;;;5033749;28;20116;-65
2022/02/13 05:29:00;;;;;;;10.20;2.95;;;1.20;99.90;;;;;;5034151;28;20033;-66
2022/02/13 05:31:30;;;;;;;7.07;2.38;;;1.20;99.90;;;;;;5014688;28;20088;-66
2022/02/13 05:33:59;;;;;;;7.10;2.20;;;1.20;99.90;;;;;;5013980;28;20408;-66
2022/02/13 05:36:25;;;;;;;4.18;1.67;;;1.30;99.90;;;;;;5027238;28;20087;-66
2022/02/13 05:38:51;;;;;;;6.40;2.63;;;1.30;99.90;;;;;;5031503;28;20045;-69
2022/02/13 05:41:17;;;;;;;7.72;2.65;;;1.40;99.90;;;;;;5013537;28;20030;-68
2022/02/13 05:43:43;;;;;;;12.18;2.58;;;1.40;99.90;;;;;;5032825;28;20029;-67
2022/02/13 05:46:09;;;;;;;8.88;2.45;;;1.40;99.90;;;;;;5031411;28;20037;-68
2022/02/13 05:48:34;;;;;;;7.63;2.40;;;1.40;99.90;;;;;;5031253;28;20075;-68
2022/02/13 05:51:01;;;;;;;7.10;2.83;;;1.40;99.90;;;;;;5013400;28;20500;-67
2022/02/13 05:53:27;;;;;;;10.02;2.90;;;1.50;99.90;;;;;;5030661;28;20112;-68
2022/02/13 05:55:53;;;;;;;9.20;2.63;;;1.40;99.90;;;;;;5030619;28;20112;-68
2022/02/13 05:58:19;;;;;;;11.02;4.10;;;1.40;99.90;;;;;;5030887;28;20481;-67
2022/02/13 06:00:44;;;;;;;5.70;2.15;;;1.40;99.90;;;;;;5012815;28;20532;-66
2022/02/13 06:03:10;;;;;;;10.98;3.03;;;1.50;99.90;;;;;;5012826;28;20041;-68
2022/02/13 06:05:36;;;;;;;4.43;2.28;;;1.50;99.90;;;;;;5030852;28;20037;-68
2022/02/13 06:08:02;;;;;;;5.72;2.25;;;1.60;99.90;;;;;;5013520;28;20036;-68
2022/02/13 06:10:28;;;;;;;7.57;2.92;;;1.60;99.90;;;;;;5030978;28;20030;-68
2022/02/13 06:12:53;;;;;;;8.80;2.72;;;1.60;99.90;;;;;;5031198;28;20432;-69
2022/02/13 06:15:20;;;;;;;6.32;2.70;;;1.60;99.90;;;;;;5030395;28;20103;-68
2022/02/13 06:17:45;;;;;;;6.45;2.63;;;1.70;99.90;;;;;;5030614;28;20041;-68
2022/02/13 06:20:11;;;;;;;7.05;2.30;;;1.70;99.90;;;;;;5030082;28;20445;-68
2022/02/13 06:22:37;;;;;;;5.75;1.98;;;1.70;99.90;;;;;;5030812;28;20041;-68
2022/02/13 06:25:03;;;;;;;6.18;1.90;;;1.70;99.90;;;;;;5030875;28;20057;-67
2022/02/13 06:27:28;;;;;;;6.10;2.35;;;1.80;99.90;;;;;;5030513;28;20485;-68
2022/02/13 06:29:54;;;;;;;9.35;2.30;;;1.80;99.90;;;;;;5012796;28;20040;-68
2022/02/13 06:32:20;;;;;;;8.88;2.65;;;1.80;99.90;;;;;;5026268;28;20194;-68
2022/02/13 06:34:46;;;;;;;6.72;2.38;;;1.80;99.90;;;;;;5030288;28;20544;-67
2022/02/13 06:37:12;;;;;;;9.38;2.35;;;1.80;99.90;;;;;;5030242;28;20041;-68
2022/02/13 06:39:37;;;;;;;6.28;2.38;;;1.90;99.90;;;;;;5029682;28;20747;-66
2022/02/13 06:42:03;;;;;;;15.75;3.97;;;1.90;99.90;;;;;;5029927;28;20060;-68
2022/02/13 06:44:29;;;;;;;8.30;2.90;;;1.90;99.90;;;;;;5029158;28;20037;-68
2022/02/13 06:46:54;;;;;;;6.88;2.60;;;1.90;99.90;;;;;;5012191;28;20045;-68
2022/02/13 06:49:20;;;;;;;10.45;3.00;;;1.90;99.90;;;;;;5029655;28;20029;-65
2022/02/13 06:51:45;;;;;;;7.95;2.75;;;1.90;99.90;;;;;;5029801;28;20033;-67
2022/02/13 06:54:11;;;;;;;7.65;2.60;;;2.00;99.90;;;;;;5012381;28;20116;-68
2022/02/13 06:56:37;;;;;;;7.88;2.80;;;2.00;99.90;;;;;;5012130;28;20067;-69
2022/02/13 06:59:03;;;;;;;6.40;2.55;;;2.00;99.90;;;;;;5030126;28;20117;-68
2022/02/13 07:01:28;;;;;;;4.88;2.15;;;2.00;99.90;;;;;;5028976;28;20129;-68
2022/02/13 07:03:54;;;;;;;4.93;2.42;;;2.10;99.90;;;;;;5012255;28;20191;-67
2022/02/13 07:06:19;;;;;;;7.55;2.60;;;2.10;99.90;;;;;;5029666;28;20464;-68
2022/02/13 07:08:45;;;;;;;6.50;2.17;;;2.10;99.90;;;;;;5029769;28;20121;-66
2022/02/13 07:11:10;;;;;;;7.13;2.60;;;2.10;99.90;;;;;;5029738;28;20436;-67
2022/02/13 07:13:37;;;;;;;7.00;3.22;;;2.10;99.90;;;;;;5029106;28;20587;-68
2022/02/13 07:16:03;;;;;;;9.50;2.45;;;2.20;99.90;;;;;;5029786;28;20385;-68
2022/02/13 07:18:28;;;;;;;6.25;2.28;;;2.20;99.90;;;;;;5012188;28;20040;-68
2022/02/13 07:20:54;;;;;;;6.22;2.58;;;2.30;99.90;;;;;;5012040;28;20091;-68
2022/02/13 07:23:20;;;;;;;6.50;2.00;;;2.30;99.90;;;;;;5029326;28;20463;-66
2022/02/13 07:25:46;;;;;;;8.23;2.20;;;2.30;99.90;;;;;;5012080;28;20469;-66
2022/02/13 07:30:56;;;;;;;4.28;2.38;;;2.40;99.90;;;;;;5026540;28;20044;-66
2022/02/13 07:33:22;;;;;;;6.05;1.90;;;2.40;99.90;;;;;;5029159;28;20034;-66
2022/02/13 07:35:47;;;;;;;7.05;2.20;;;2.50;99.90;;;;;;5029705;28;20162;-70
2022/02/13 07:38:13;;;;;;;5.00;2.03;;;2.50;99.90;;;;;;5012717;28;20048;-68
2022/02/13 07:40:38;;;;;;;8.40;2.42;;;2.50;99.90;;;;;;5029518;28;20041;-67
2022/02/13 07:43:04;;;;;;;8.18;3.40;;;2.50;99.90;;;;;;5026471;28;20048;-65
2022/02/13 07:45:30;;;;;;;6.38;2.28;;;2.50;99.90;;;;;;5049098;28;20117;-65
2022/02/13 07:47:56;;;;;;;9.13;3.05;;;2.60;99.90;;;;;;5045481;28;20029;-66
2022/02/13 07:50:21;;;;;;;6.60;2.55;;;2.60;99.90;;;;;;5029376;28;20447;-64
2022/02/13 07:52:47;;;;;;;5.07;1.83;;;2.70;99.90;;;;;;5012010;28;20037;-64
2022/02/13 07:55:13;;;;;;;5.35;1.90;;;2.60;99.90;;;;;;5030010;28;20037;-65
2022/02/13 07:57:41;;;;;;;5.15;2.10;;;2.70;99.90;;;;;;5033113;28;20489;-67
2022/02/13 08:00:09;;;;;;;6.20;2.00;;;2.60;99.90;;;;;;5033561;28;20084;-66
2022/02/13 08:02:36;;;;;;;6.88;3.22;;;2.70;99.90;;;;;;5033754;28;20028;-66
2022/02/13 08:05:02;;;;;;;6.63;2.67;;;2.80;99.90;;;;;;5015300;28;20045;-67
2022/02/13 08:07:28;;;;;;;7.70;2.03;;;2.80;99.90;;;;;;5033317;28;20067;-64
2022/02/13 08:09:53;;;;;;;6.35;2.53;;;2.80;99.90;;;;;;5033286;28;20073;-65
2022/02/13 08:12:19;;;;;;;10.10;2.75;;;2.90;99.90;;;;;;5015009;28;20447;-65
2022/02/13 08:14:44;;;;;;;9.52;2.65;;;2.90;99.90;;;;;;5025065;28;20080;-65
2022/02/13 08:17:10;;;;;;;8.20;2.67;;;3.00;99.90;;;;;;5033969;28;20039;-67
2022/02/13 08:19:36;;;;;;;6.00;2.85;;;3.00;99.90;;;;;;5032808;28;20034;-67
2022/02/13 08:22:05;;;;;;;4.35;2.22;;;3.10;99.90;;;;;;5033467;28;20042;-67
2022/02/13 08:24:33;;;;;;;3.83;2.25;;;3.10;99.90;;;;;;5032702;28;20029;-66
2022/02/13 08:26:59;;;;;;;4.35;2.28;;;3.20;99.90;;;;;;5033301;28;20429;-67
2022/02/13 08:29:25;;;;;;;4.72;2.30;;;3.20;99.90;;;;;;5032258;28;20080;-67
2022/02/13 08:31:51;;;;;;;6.55;2.47;;;3.30;99.90;;;;;;5032136;28;20431;-67
2022/02/13 08:34:17;;;;;;;4.95;1.88;;;3.30;99.90;;;;;;5014574;28;20508;-66
2022/02/13 08:36:42;;;;;;;5.03;2.15;;;3.40;99.90;;;;;;5033037;28;20041;-66
2022/02/13 08:39:08;;;;;;;11.35;2.72;;;3.40;99.90;;;;;;5032847;28;20057;-66
2022/02/13 08:41:35;;;;;;;7.78;2.15;;;3.50;99.90;;;;;;5033833;28;20495;-66
2022/02/13 08:44:01;;;;;;;5.53;2.50;;;3.50;99.90;;;;;;5016923;28;20110;-66
2022/02/13 08:46:27;;;;;;;8.32;2.65;;;3.60;99.90;;;;;;5032569;28;20071;-66
2022/02/13 08:48:52;;;;;;;4.93;2.20;;;3.60;99.90;;;;;;5032648;28;20112;-66
2022/02/13 08:51:18;;;;;;;10.38;3.30;;;3.70;99.90;;;;;;5032013;28;20064;-66
2022/02/13 08:53:44;;;;;;;5.28;2.95;;;3.60;99.90;;;;;;5032651;28;20030;-67
2022/02/13 08:56:09;;;;;;;8.82;2.10;;;3.60;99.90;;;;;;5014634;28;20037;-67
2022/02/13 08:58:35;;;;;;;5.93;2.23;;;3.60;99.90;;;;;;5027467;28;20034;-66
2022/02/13 09:01:00;;;;;;;8.35;2.40;;;3.70;99.90;;;;;;5031096;28;20039;-66
2022/02/13 09:03:27;;;;;;;5.75;2.30;;;3.70;99.90;;;;;;5030336;28;20036;-66
2022/02/13 09:05:53;;;;;;;4.47;2.38;;;3.80;99.90;;;;;;5013415;28;20396;-66
2022/02/13 09:08:19;;;;;;;5.88;2.13;;;3.80;99.90;;;;;;5029341;28;20088;-66
2022/02/13 09:10:45;;;;;;;5.75;2.55;;;3.80;99.90;;;;;;5030385;28;20436;-66
2022/02/13 09:13:11;;;;;;;5.00;2.13;;;3.90;99.90;;;;;;5030851;28;20406;-66
2022/02/13 09:15:38;;;;;;;6.88;2.40;;;3.90;99.90;;;;;;5030574;28;20416;-67
2022/02/13 09:18:04;;;;;;;8.43;2.22;;;4.00;99.90;;;;;;5027828;28;20354;-67
2022/02/13 09:20:30;;;;;;;4.32;2.33;;;4.00;99.90;;;;;;5028528;28;20060;-67
2022/02/13 09:22:56;;;;;;;8.82;2.20;;;4.10;99.90;;;;;;5030650;28;20083;-66
2022/02/13 09:25:21;;;;;;;6.25;2.45;;;4.10;99.90;;;;;;5012121;28;20029;-66
2022/02/13 09:27:47;;;;;;;6.90;2.38;;;4.20;99.90;;;;;;5030189;28;20454;-66
2022/02/13 09:30:13;;;;;;;4.18;2.25;;;4.20;99.90;;;;;;5030617;28;20065;-66
2022/02/13 09:32:40;;;;;;;5.47;2.60;;;4.30;99.90;;;;;;5030234;28;20080;-66
2022/02/13 09:35:08;;;;;;;12.85;3.60;;;4.40;99.90;;;;;;5030635;28;20081;-66
2022/02/13 09:37:33;;;;;;;6.15;2.50;;;4.50;99.90;;;;;;5025226;28;20033;-66
2022/02/13 09:40:00;;;;;;;5.75;2.03;;;4.60;99.90;;;;;;5029503;28;20103;-66
2022/02/13 09:42:27;;;;;;;5.72;2.17;;;4.80;99.90;;;;;;5033045;28;20029;-66
2022/02/13 09:44:52;;;;;;;4.85;2.00;;;5.00;99.90;;;;;;5012237;28;20045;-66
2022/02/13 09:47:20;;;;;;;8.45;2.00;;;5.20;99.90;;;;;;5029988;28;20038;-67
2022/02/13 09:49:46;;;;;;;6.55;2.58;;;5.30;99.90;;;;;;5030276;28;20037;-67
2022/02/13 09:52:13;;;;;;;6.93;2.42;;;5.30;99.90;;;;;;5030115;28;20026;-66
2022/02/13 09:54:39;;;;;;;9.02;2.67;;;5.40;99.90;;;;;;5029226;28;20053;-66
2022/02/13 09:59:57;;;;;;;4.90;2.42;;;5.40;99.90;;;;;;5029328;28;20044;-66
2022/02/13 10:02:38;;;;;;;7.80;2.63;;;5.40;99.90;;;;;;5029780;28;20044;-67
2022/02/13 10:05:08;;;;;;;4.10;2.50;;;5.40;99.90;;;;;;5029415;28;20084;-66
2022/02/13 10:07:36;;;;;;;10.27;2.58;;;5.50;99.90;;;;;;5029737;28;20029;-67
2022/02/13 10:10:07;;;;;;;6.00;2.75;;;5.60;99.90;;;;;;5029543;28;20153;-67
2022/02/13 10:12:42;;;;;;;6.40;2.72;;;5.70;99.90;;;;;;5011515;28;20045;-67
2022/02/13 10:15:20;;;;;;;7.57;2.83;;;5.70;99.90;;;;;;5021835;28;20046;-67
2022/02/13 10:17:58;;;;;;;8.00;2.85;;;5.70;99.90;;;;;;5026711;28;20047;-66
2022/02/13 10:20:40;;;;;;;6.80;2.80;;;5.80;99.90;;;;;;5028396;28;20041;-67
2022/02/13 10:23:14;;;;;;;7.63;3.28;;;5.80;99.90;;;;;;5029330;28;20524;-67
2022/02/13 10:25:41;;;;;;;11.43;2.55;;;5.90;99.90;;;;;;5011320;28;20044;-66
2022/02/13 10:28:17;;;;;;;6.57;2.63;;;6.00;99.90;;;;;;5011946;28;20033;-66
2022/02/13 10:30:45;;;;;;;7.10;2.95;;;6.00;99.90;;;;;;5025812;28;20033;-66
2022/02/13 10:33:14;;;;;;;6.03;2.53;;;6.10;99.90;;;;;;5029370;28;20049;-66
2022/02/13 10:35:40;;;;;;;6.30;2.45;;;6.10;99.90;;;;;;5025336;28;20156;-66
2022/02/13 10:38:05;;;;;;;12.45;2.80;;;6.20;99.90;;;;;;5029475;28;20076;-66
2022/02/13 10:40:34;;;;;;;8.00;2.92;;;6.20;99.90;;;;;;5028556;28;20037;-66
2022/02/13 10:43:09;;;;;;;6.68;2.40;;;6.20;99.90;;;;;;5032006;28;20329;-66
2022/02/13 10:45:39;;;;;;;7.10;2.88;;;6.20;99.90;;;;;;5028979;28;20033;-66
2022/02/13 10:48:07;;;;;;;9.02;2.75;;;6.30;99.90;;;;;;5029889;28;20061;-66
2022/02/13 10:50:37;;;;;;;5.35;2.75;;;6.40;99.90;;;;;;5010527;28;20108;-66
2022/02/13 10:53:06;;;;;;;5.20;2.63;;;6.50;99.90;;;;;;5011376;28;20531;-65
2022/02/13 10:55:34;;;;;;;6.57;2.38;;;6.50;99.90;;;;;;5010611;28;20037;-66
2022/02/13 10:58:00;;;;;;;6.65;2.50;;;6.50;99.90;;;;;;5028830;28;20397;-67
2022/02/13 11:00:30;;;;;;;5.03;2.40;;;6.60;99.90;;;;;;5028198;28;20041;-66
2022/02/13 11:03:02;;;;;;;6.10;2.88;;;6.60;99.90;;;;;;5028745;28;20409;-66
2022/02/13 11:05:30;;;;;;;6.82;2.40;;;6.60;99.90;;;;;;5027449;28;20072;-67
2022/02/13 11:08:01;;;;;;;5.72;2.22;;;6.70;99.90;;;;;;5027488;28;20091;-66
2022/02/13 11:10:30;;;;;;;12.18;2.42;;;6.70;99.90;;;;;;5008721;28;20037;-66
2022/02/13 11:12:57;;;;;;;5.25;2.55;;;6.80;99.90;;;;;;5005353;28;20041;-66
2022/02/13 11:15:27;;;;;;;5.53;2.25;;;6.80;99.90;;;;;;5027838;28;20091;-67
2022/02/13 11:17:57;;;;;;;4.93;2.10;;;6.90;99.90;;;;;;5011225;28;20080;-66
2022/02/13 11:20:23;;;;;;;6.72;2.80;;;7.00;99.90;;;;;;5027596;28;20132;-66
2022/02/13 11:22:53;;;;;;;6.47;2.83;;;7.00;99.90;;;;;;5028160;28;20120;-66
2022/02/13 11:25:47;;;;;;;6.00;2.33;;;7.10;99.90;;;;;;5010652;28;20459;-66
2022/02/13 11:28:13;;;;;;;4.57;2.40;;;7.20;99.90;;;;;;5011029;28;20037;-66
2022/02/13 11:30:51;;;;;;;4.18;2.05;;;7.20;99.90;;;;;;5011722;28;20443;-66
2022/02/13 11:33:22;;;;;;;3.78;1.83;;;7.30;99.90;;;;;;5029836;28;20025;-66
2022/02/13 11:35:56;;;;;;;5.65;2.42;;;7.30;99.90;;;;;;5032628;28;20475;-67
2022/02/13 11:38:40;;;;;;;6.50;1.80;;;7.40;99.90;;;;;;5014147;28;20048;-67
2022/02/13 11:41:07;;;;;;;5.38;2.35;;;7.40;99.90;;;;;;5027735;28;20485;-68
2022/02/13 11:43:59;;;;;;;4.68;1.95;;;7.50;99.90;;;;;;5034313;28;20067;-67
2022/02/13 11:46:27;;;;;;;6.50;2.13;;;7.50;99.90;;;;;;5006027;28;20033;-68
2022/02/13 11:49:02;;;;;;;4.00;2.00;;;7.60;99.90;;;;;;5014972;28;20041;-70
2022/02/13 11:51:45;;;;;;;5.90;2.13;;;7.70;99.90;;;;;;5008014;28;20038;-68
2022/02/13 11:54:42;;;;;;;4.35;2.28;;;7.70;99.90;;;;;;5029836;28;20041;-68
2022/02/13 11:57:19;;;;;;;5.82;1.90;;;7.80;99.90;;;;;;5014400;28;20425;-68
2022/02/13 11:59:51;;;;;;;6.38;2.50;;;7.80;99.90;;;;;;5032121;28;20184;-66
2022/02/13 12:02:35;;;;;;;5.20;2.05;;;7.90;99.90;;;;;;5014251;28;20110;-68
2022/02/13 12:05:06;;;;;;;4.05;1.90;;;8.00;99.90;;;;;;5013999;28;20033;-69
2022/02/13 12:07:42;;;;;;;4.65;2.28;;;8.10;99.90;;;;;;5027800;28;20061;-66
2022/02/13 12:10:12;;;;;;;3.78;1.85;;;8.10;99.90;;;;;;5014159;28;20493;-68
2022/02/13 12:12:40;;;;;;;4.57;2.05;;;8.10;99.90;;;;;;5032092;28;20041;-68
2022/02/13 12:15:06;;;;;;;5.60;2.45;;;8.10;99.90;;;;;;5032227;28;20038;-68
2022/02/13 12:17:32;;;;;;;5.38;2.67;;;8.20;99.90;;;;;;5031712;28;20034;-69
2022/02/13 12:20:00;;;;;;;5.63;2.50;;;8.20;99.90;;;;;;5031578;28;20086;-69
2022/02/13 12:22:27;;;;;;;4.43;1.88;;;8.30;99.90;;;;;;5031264;28;20485;-69
2022/02/13 12:24:56;;;;;;;4.38;2.15;;;8.30;99.90;;;;;;5032082;28;20049;-69
2022/02/13 12:27:22;;;;;;;7.23;2.53;;;8.50;99.90;;;;;;5029039;28;20033;-68
2022/02/13 12:29:52;;;;;;;6.63;2.38;;;8.50;99.90;;;;;;5012800;28;20351;-69
2022/02/13 12:32:19;;;;;;;6.97;2.72;;;8.50;99.90;;;;;;5030551;28;20489;-67
2022/02/13 12:34:55;;;;;;;7.43;2.17;;;8.60;99.90;;;;;;5031428;28;20044;-68
2022/02/13 12:37:39;;;;;;;6.45;2.72;;;8.60;99.90;;;;;;5030995;28;20079;-68
2022/02/13 12:40:10;;;;;;;7.93;2.30;;;8.60;99.90;;;;;;5013714;28;20037;-68
2022/02/13 12:42:39;;;;;;;4.00;2.00;;;8.60;99.90;;;;;;5031622;28;20172;-68
2022/02/13 12:45:11;;;;;;;8.57;2.75;;;8.70;99.90;;;;;;5031949;28;20041;-69
2022/02/13 12:47:39;;;;;;;3.88;2.15;;;8.70;99.90;;;;;;5009174;28;20526;-69
2022/02/13 12:50:07;;;;;;;5.53;2.08;;;8.80;99.90;;;;;;5031299;28;20168;-68
2022/02/13 12:52:34;;;;;;;6.18;2.00;;;8.90;99.90;;;;;;5013112;28;20033;-67
2022/02/13 12:55:11;;;;;;;4.70;2.03;;;8.90;99.90;;;;;;5031417;28;20033;-68
2022/02/13 12:57:41;;;;;;;4.70;2.30;;;9.00;99.90;;;;;;5012508;28;20515;-67
2022/02/13 13:00:15;;;;;;;5.35;2.10;;;9.00;99.90;;;;;;5013478;28;20125;-69